Time;durP1;ratioP1;P1;durP2;ratioP2;P2;SDS_P1;SDS_P2;PMS_P1;PMS_P2;Temp;Humidity;BMP_temperature;BMP_pressure;BME280_temperature;BME280_humidity;BME280_pressure;Samples;Min_cycle;Max_cycle;Signal;HPM_P1;HPM_P2
2021/03/18 00:01:02;;;;;;;5.07;2.30;;;;;;;;;;4909829;29;20673;-63
2021/03/18 00:03:32;;;;;;;4.82;2.20;;;;;;;;;;4909792;28;20042;-62
2021/03/18 00:05:57;;;;;;;4.75;2.75;;;;;;;;;;4924764;28;20142;-62
2021/03/18 00:08:23;;;;;;;10.88;2.63;;;;;;;;;;4927478;28;20611;-63
2021/03/18 00:10:49;;;;;;;12.85;2.90;;;;;;;;;;4932089;28;20031;-63
2021/03/18 00:13:19;;;;;;;12.73;2.00;;;;;;;;;;4911411;29;20061;-63
2021/03/18 00:15:45;;;;;;;6.35;2.30;;;;;;;;;;4929648;28;20035;-63
2021/03/18 00:18:14;;;;;;;8.90;2.55;;;;;;;;;;4912059;28;20031;-63
2021/03/18 00:20:40;;;;;;;8.15;2.67;;;;;;;;;;4911438;28;20043;-62
2021/03/18 00:23:07;;;;;;;13.15;2.65;;;;;;;;;;4909237;28;20074;-62
2021/03/18 00:25:33;;;;;;;5.80;2.63;;;;;;;;;;4926736;28;22077;-62
2021/03/18 00:27:59;;;;;;;8.02;2.40;;;;;;;;;;4912822;28;20403;-63
2021/03/18 00:30:27;;;;;;;4.32;2.08;;;;;;;;;;4928771;28;20031;-62
2021/03/18 00:32:53;;;;;;;5.47;2.72;;;;;;;;;;4931555;28;20034;-62
2021/03/18 00:35:24;;;;;;;3.55;1.58;;;;;;;;;;4930589;28;21603;-61
2021/03/18 00:37:53;;;;;;;6.65;2.78;;;;;;;;;;4929193;28;20101;-59
2021/03/18 00:40:19;;;;;;;3.72;2.50;;;;;;;;;;4932156;28;20576;-61
2021/03/18 00:42:55;;;;;;;5.18;2.03;;;;;;;;;;4912895;28;20680;-62
2021/03/18 00:45:21;;;;;;;9.43;2.33;;;;;;;;;;4928560;28;20031;-62
2021/03/18 00:47:50;;;;;;;8.50;2.50;;;;;;;;;;4912496;28;20065;-62
2021/03/18 00:50:21;;;;;;;7.88;2.88;;;;;;;;;;4930719;28;20445;-63
2021/03/18 00:52:46;;;;;;;11.48;2.75;;;;;;;;;;4931236;28;20042;-62
2021/03/18 00:55:14;;;;;;;14.55;2.70;;;;;;;;;;4910427;29;20051;-61
2021/03/18 00:57:42;;;;;;;5.32;2.70;;;;;;;;;;4928417;28;20039;-61
2021/03/18 01:00:14;;;;;;;6.18;3.28;;;;;;;;;;4927524;28;20443;-61
2021/03/18 01:02:40;;;;;;;3.55;2.55;;;;;;;;;;4911538;29;20039;-60
2021/03/18 01:05:08;;;;;;;5.28;2.50;;;;;;;;;;4904219;28;20039;-61
2021/03/18 01:07:38;;;;;;;6.78;2.75;;;;;;;;;;4926617;28;20051;-61
2021/03/18 01:10:07;;;;;;;5.90;2.60;;;;;;;;;;4928206;28;20062;-60
2021/03/18 01:12:36;;;;;;;6.40;2.45;;;;;;;;;;4911001;28;20728;-61
2021/03/18 01:15:06;;;;;;;6.47;2.45;;;;;;;;;;4912352;29;20027;-61
2021/03/18 01:17:31;;;;;;;5.97;2.25;;;;;;;;;;4929848;28;20039;-61
2021/03/18 01:20:06;;;;;;;8.10;3.03;;;;;;;;;;4926578;28;20643;-61
2021/03/18 01:22:34;;;;;;;;;;;;;;;;;;4910188;29;20086;-60
2021/03/18 01:24:59;;;;;;;6.70;2.83;;;;;;;;;;4929588;28;19922;-60
2021/03/18 01:27:27;;;;;;;12.00;2.55;;;;;;;;;;4911986;28;20045;-60
2021/03/18 01:29:52;;;;;;;8.38;2.67;;;;;;;;;;4928977;28;20031;-59
2021/03/18 01:32:18;;;;;;;6.35;2.63;;;;;;;;;;4929582;28;20043;-60
2021/03/18 01:34:46;;;;;;;11.75;2.72;;;;;;;;;;4924502;28;20178;-60
2021/03/18 01:37:11;;;;;;;3.75;2.28;;;;;;;;;;4911105;29;20031;-60
2021/03/18 01:39:39;;;;;;;6.55;2.40;;;;;;;;;;4911273;28;20067;-60
2021/03/18 01:42:09;;;;;;;4.57;2.53;;;;;;;;;;4928158;28;20034;-60
2021/03/18 01:44:37;;;;;;;6.13;2.70;;;;;;;;;;4929464;28;20046;-60
2021/03/18 01:47:05;;;;;;;6.28;2.72;;;;;;;;;;4928443;28;20161;-60
2021/03/18 01:49:33;;;;;;;11.85;2.97;;;;;;;;;;4931723;28;20643;-61
2021/03/18 01:52:01;;;;;;;3.00;1.98;;;;;;;;;;4906164;28;20027;-60
2021/03/18 01:54:29;;;;;;;6.28;2.40;;;;;;;;;;4911929;28;20774;-61
2021/03/18 01:56:57;;;;;;;4.22;1.98;;;;;;;;;;4931009;28;20073;-59
2021/03/18 01:59:24;;;;;;;10.90;2.38;;;;;;;;;;4910298;28;20058;-59
2021/03/18 02:01:50;;;;;;;3.95;2.10;;;;;;;;;;4928965;29;20145;-60
2021/03/18 02:04:18;;;;;;;9.38;3.38;;;;;;;;;;4930213;28;20043;-60
2021/03/18 02:06:44;;;;;;;11.90;2.65;;;;;;;;;;4926455;28;20031;-61
2021/03/18 02:09:10;;;;;;;4.97;2.67;;;;;;;;;;4925199;28;20134;-60
2021/03/18 02:11:36;;;;;;;3.70;2.33;;;;;;;;;;4902522;28;20037;-60
2021/03/18 02:14:01;;;;;;;6.93;2.90;;;;;;;;;;4922604;28;20061;-61
2021/03/18 02:16:29;;;;;;;10.85;2.30;;;;;;;;;;4886102;28;20123;-61
2021/03/18 02:19:03;;;;;;;4.75;2.88;;;;;;;;;;4888264;28;20037;-60
2021/03/18 02:21:48;;;;;;;11.70;2.75;;;;;;;;;;4927562;28;20027;-60
2021/03/18 02:24:37;;;;;;;2.83;1.83;;;;;;;;;;4909484;29;20105;-60
2021/03/18 02:27:24;;;;;;;7.50;2.78;;;;;;;;;;4925935;28;20501;-60
2021/03/18 02:30:02;;;;;;;7.72;2.63;;;;;;;;;;4910363;28;20558;-60
2021/03/18 02:32:46;;;;;;;6.57;2.28;;;;;;;;;;4926337;28;20038;-60
2021/03/18 02:35:26;;;;;;;18.75;3.15;;;;;;;;;;4925979;28;20145;-60
2021/03/18 02:38:02;;;;;;;4.20;2.60;;;;;;;;;;4906338;28;20138;-60
2021/03/18 02:40:30;;;;;;;7.47;2.58;;;;;;;;;;4929598;28;20067;-59
2021/03/18 02:43:00;;;;;;;6.65;2.30;;;;;;;;;;4929447;28;20035;-60
2021/03/18 02:45:30;;;;;;;7.55;2.92;;;;;;;;;;4910765;28;20027;-59
2021/03/18 02:47:57;;;;;;;7.95;3.08;;;;;;;;;;4928703;28;20031;-60
2021/03/18 02:50:24;;;;;;;7.55;3.33;;;;;;;;;;4926029;28;20046;-60
2021/03/18 02:52:53;;;;;;;7.30;2.20;;;;;;;;;;4926760;28;20644;-60
2021/03/18 02:55:29;;;;;;;8.52;2.63;;;;;;;;;;4927930;28;20031;-60
2021/03/18 02:57:56;;;;;;;11.95;2.75;;;;;;;;;;4927234;28;20091;-59
2021/03/18 03:00:22;;;;;;;8.45;2.67;;;;;;;;;;4931347;28;20038;-60
2021/03/18 03:02:51;;;;;;;5.63;2.53;;;;;;;;;;4929841;28;20039;-60
2021/03/18 03:05:22;;;;;;;8.65;3.13;;;;;;;;;;4930074;28;20074;-60
2021/03/18 03:07:48;;;;;;;4.28;2.90;;;;;;;;;;4909732;29;20035;-60
2021/03/18 03:10:16;;;;;;;6.13;2.63;;;;;;;;;;4925582;28;20491;-59
2021/03/18 03:12:45;;;;;;;8.82;2.95;;;;;;;;;;4926572;28;20311;-59
2021/03/18 03:15:16;;;;;;;8.30;3.58;;;;;;;;;;4926985;28;20034;-59
2021/03/18 03:17:45;;;;;;;5.85;3.22;;;;;;;;;;4910423;28;20047;-60
2021/03/18 03:20:13;;;;;;;12.25;3.40;;;;;;;;;;4924122;28;20034;-60
2021/03/18 03:22:39;;;;;;;6.65;3.03;;;;;;;;;;4926744;28;20027;-60
2021/03/18 03:25:12;;;;;;;9.70;3.75;;;;;;;;;;4926506;28;20055;-60
2021/03/18 03:27:38;;;;;;;12.10;3.78;;;;;;;;;;4913454;29;20118;-60
2021/03/18 03:30:06;;;;;;;15.23;4.22;;;;;;;;;;4906524;28;20188;-60
2021/03/18 03:32:37;;;;;;;15.35;3.85;;;;;;;;;;4908077;28;20031;-59
2021/03/18 03:35:06;;;;;;;6.78;3.63;;;;;;;;;;4926252;28;20129;-59
2021/03/18 03:37:32;;;;;;;8.60;3.83;;;;;;;;;;4919832;28;20035;-60
2021/03/18 03:40:02;;;;;;;9.55;3.40;;;;;;;;;;4908655;28;20035;-60
2021/03/18 03:42:28;;;;;;;6.82;3.20;;;;;;;;;;4907562;29;20046;-59
2021/03/18 03:44:53;;;;;;;8.63;3.38;;;;;;;;;;4927585;28;20043;-60
2021/03/18 03:47:19;;;;;;;9.63;3.63;;;;;;;;;;4925648;28;20035;-60
2021/03/18 03:49:44;;;;;;;7.07;3.50;;;;;;;;;;4925652;28;20391;-59
2021/03/18 03:52:18;;;;;;;5.88;3.30;;;;;;;;;;4929252;28;20047;-59
2021/03/18 03:54:46;;;;;;;9.15;3.38;;;;;;;;;;4908894;28;20043;-59
2021/03/18 03:57:19;;;;;;;8.90;3.55;;;;;;;;;;4926995;28;20106;-59
2021/03/18 03:59:50;;;;;;;8.73;3.75;;;;;;;;;;4894005;28;20184;-60
2021/03/18 04:02:15;;;;;;;7.78;3.65;;;;;;;;;;4926428;28;20090;-60
2021/03/18 04:04:47;;;;;;;5.25;2.97;;;;;;;;;;4927767;28;20063;-59
2021/03/18 04:07:20;;;;;;;8.02;3.47;;;;;;;;;;4928287;28;20030;-59
2021/03/18 04:09:49;;;;;;;3.20;2.42;;;;;;;;;;4911568;29;20027;-59
2021/03/18 04:12:16;;;;;;;9.65;2.97;;;;;;;;;;4927115;28;20399;-59
2021/03/18 04:14:46;;;;;;;9.15;3.00;;;;;;;;;;4910711;28;20031;-59
2021/03/18 04:17:15;;;;;;;7.03;3.22;;;;;;;;;;4911209;28;20035;-60
2021/03/18 04:19:44;;;;;;;7.65;3.10;;;;;;;;;;4924400;28;20122;-60
2021/03/18 04:22:12;;;;;;;5.18;3.30;;;;;;;;;;4925810;28;20082;-60
2021/03/18 04:24:42;;;;;;;6.18;2.88;;;;;;;;;;4925798;28;20206;-60
2021/03/18 04:27:08;;;;;;;6.13;3.22;;;;;;;;;;4924964;28;20031;-59
2021/03/18 04:29:38;;;;;;;3.78;2.85;;;;;;;;;;4924090;28;20031;-59
2021/03/18 04:32:04;;;;;;;8.52;3.50;;;;;;;;;;4926288;28;20031;-60
2021/03/18 04:34:29;;;;;;;10.77;3.13;;;;;;;;;;4916305;28;20953;-60
2021/03/18 04:36:56;;;;;;;8.13;2.72;;;;;;;;;;4922253;28;20051;-59
2021/03/18 04:39:28;;;;;;;8.85;3.00;;;;;;;;;;4926231;28;20030;-59
2021/03/18 04:41:54;;;;;;;6.28;3.08;;;;;;;;;;4926084;28;20051;-59
2021/03/18 04:44:19;;;;;;;11.05;4.18;;;;;;;;;;4899895;28;20039;-61
2021/03/18 04:46:46;;;;;;;5.70;2.58;;;;;;;;;;4908521;28;20031;-61
2021/03/18 04:49:14;;;;;;;9.35;3.50;;;;;;;;;;4929084;28;20076;-59
2021/03/18 04:51:41;;;;;;;10.50;3.25;;;;;;;;;;4928994;28;20419;-60
2021/03/18 04:54:11;;;;;;;9.80;3.50;;;;;;;;;;4912122;28;20150;-62
2021/03/18 04:56:40;;;;;;;6.40;3.25;;;;;;;;;;4930235;28;20058;-60
2021/03/18 04:59:08;;;;;;;9.55;2.70;;;;;;;;;;4912024;29;20027;-59
2021/03/18 05:01:36;;;;;;;9.35;3.28;;;;;;;;;;4932185;28;20050;-60
2021/03/18 05:04:03;;;;;;;9.15;3.90;;;;;;;;;;4914530;28;20035;-59
2021/03/18 05:06:28;;;;;;;8.90;3.47;;;;;;;;;;4928173;28;20193;-59
2021/03/18 05:08:58;;;;;;;7.82;3.03;;;;;;;;;;4931497;28;21003;-59
2021/03/18 05:11:24;;;;;;;9.52;3.88;;;;;;;;;;4909011;28;20150;-59
2021/03/18 05:13:49;;;;;;;6.18;3.47;;;;;;;;;;4910367;28;20481;-59
2021/03/18 05:16:17;;;;;;;11.35;3.20;;;;;;;;;;4929672;28;20054;-59
2021/03/18 05:18:43;;;;;;;5.35;3.33;;;;;;;;;;4930641;28;22085;-60
2021/03/18 05:21:12;;;;;;;10.25;3.40;;;;;;;;;;4930003;28;20110;-59
2021/03/18 05:23:38;;;;;;;5.60;2.92;;;;;;;;;;4917223;28;20039;-60
2021/03/18 05:26:04;;;;;;;9.02;3.13;;;;;;;;;;4911510;28;20043;-60
2021/03/18 05:28:29;;;;;;;8.80;3.13;;;;;;;;;;4910942;28;21904;-59
2021/03/18 05:30:55;;;;;;;8.73;2.90;;;;;;;;;;4912761;28;20043;-59
2021/03/18 05:33:23;;;;;;;9.90;3.25;;;;;;;;;;4913885;29;20150;-60
2021/03/18 05:35:56;;;;;;;6.07;2.83;;;;;;;;;;4927377;28;20154;-60
2021/03/18 05:38:24;;;;;;;6.22;3.03;;;;;;;;;;4925196;28;20042;-60
2021/03/18 05:40:54;;;;;;;6.13;2.95;;;;;;;;;;4927444;28;20047;-60
2021/03/18 05:43:21;;;;;;;7.07;2.85;;;;;;;;;;4910378;28;20039;-60
2021/03/18 05:45:47;;;;;;;5.35;2.33;;;;;;;;;;4926252;28;20073;-60
2021/03/18 05:48:12;;;;;;;9.00;3.15;;;;;;;;;;4905470;28;20224;-59
2021/03/18 05:50:41;;;;;;;7.65;2.83;;;;;;;;;;4929833;28;20035;-61
2021/03/18 05:53:07;;;;;;;5.75;2.90;;;;;;;;;;4929673;28;22206;-60
2021/03/18 05:55:38;;;;;;;7.20;3.67;;;;;;;;;;4930335;28;20043;-61
2021/03/18 05:58:06;;;;;;;11.18;3.13;;;;;;;;;;4911612;28;20105;-60
2021/03/18 06:00:35;;;;;;;8.45;2.90;;;;;;;;;;4929695;28;20031;-60
2021/03/18 06:03:05;;;;;;;10.60;3.08;;;;;;;;;;4913119;28;20045;-60
2021/03/18 06:05:34;;;;;;;7.13;2.85;;;;;;;;;;4889986;28;20042;-60
2021/03/18 06:07:59;;;;;;;6.53;3.10;;;;;;;;;;4929130;28;20031;-60
2021/03/18 06:10:26;;;;;;;9.23;3.03;;;;;;;;;;4916309;28;20067;-59
2021/03/18 06:12:53;;;;;;;7.15;3.20;;;;;;;;;;4928380;28;20038;-61
2021/03/18 06:15:22;;;;;;;13.98;3.72;;;;;;;;;;4926839;28;20027;-59
2021/03/18 06:17:49;;;;;;;7.90;3.28;;;;;;;;;;4930228;28;20035;-59
2021/03/18 06:20:20;;;;;;;9.10;2.88;;;;;;;;;;4928712;28;20142;-62
2021/03/18 06:22:51;;;;;;;8.13;3.10;;;;;;;;;;4913199;29;20073;-59
2021/03/18 06:25:21;;;;;;;7.47;2.95;;;;;;;;;;4892600;28;20051;-59
2021/03/18 06:27:49;;;;;;;9.80;3.00;;;;;;;;;;4892084;28;20106;-59
2021/03/18 06:30:19;;;;;;;10.63;3.53;;;;;;;;;;4915522;28;20042;-59
2021/03/18 06:32:50;;;;;;;7.20;2.95;;;;;;;;;;4903523;28;20153;-60
2021/03/18 06:35:18;;;;;;;12.00;2.80;;;;;;;;;;4928647;28;20217;-60
2021/03/18 06:37:49;;;;;;;9.77;2.85;;;;;;;;;;4929888;28;20039;-60
2021/03/18 06:40:17;;;;;;;10.93;3.33;;;;;;;;;;4912049;28;20114;-60
2021/03/18 06:42:58;;;;;;;9.88;3.30;;;;;;;;;;4929313;28;20050;-60
2021/03/18 06:45:30;;;;;;;22.50;3.70;;;;;;;;;;4929208;28;20050;-60
2021/03/18 06:47:59;;;;;;;11.15;2.85;;;;;;;;;;4896933;28;20107;-61
2021/03/18 06:50:33;;;;;;;17.90;3.85;;;;;;;;;;4931235;28;20070;-61
2021/03/18 06:53:02;;;;;;;11.82;4.20;;;;;;;;;;4931610;28;20031;-59
2021/03/18 06:55:35;;;;;;;11.07;4.15;;;;;;;;;;4925143;28;20035;-61
2021/03/18 06:58:34;;;;;;;7.93;3.42;;;;;;;;;;4931819;28;20031;-59
2021/03/18 07:01:04;;;;;;;9.00;2.92;;;;;;;;;;4878033;28;20078;-60
2021/03/18 07:03:36;;;;;;;16.50;3.15;;;;;;;;;;4932860;28;20054;-58
2021/03/18 07:06:08;;;;;;;6.80;3.05;;;;;;;;;;4931524;28;20097;-60
2021/03/18 07:08:41;;;;;;;8.57;3.00;;;;;;;;;;4929590;28;20036;-60
2021/03/18 07:11:19;;;;;;;10.02;3.90;;;;;;;;;;4930982;28;20035;-60
2021/03/18 07:13:48;;;;;;;11.85;3.25;;;;;;;;;;4911318;28;20098;-60
2021/03/18 07:16:16;;;;;;;15.20;3.20;;;;;;;;;;4927892;28;20859;-60
2021/03/18 07:18:44;;;;;;;14.77;3.67;;;;;;;;;;4929213;28;20117;-60
2021/03/18 07:21:12;;;;;;;12.73;2.83;;;;;;;;;;4912062;28;20043;-60
2021/03/18 07:23:44;;;;;;;8.57;3.28;;;;;;;;;;4923551;28;20091;-60
2021/03/18 07:26:17;;;;;;;14.13;3.45;;;;;;;;;;4909363;28;20067;-60
2021/03/18 07:28:49;;;;;;;9.93;2.58;;;;;;;;;;4928787;28;22103;-60
2021/03/18 07:31:15;;;;;;;7.85;2.63;;;;;;;;;;4908253;28;20485;-60
2021/03/18 07:33:43;;;;;;;9.32;3.40;;;;;;;;;;4924749;28;20035;-59
2021/03/18 07:36:14;;;;;;;8.63;2.85;;;;;;;;;;4910769;28;20043;-60
2021/03/18 07:38:43;;;;;;;10.00;2.90;;;;;;;;;;4907666;28;20038;-60
2021/03/18 07:41:13;;;;;;;13.15;3.30;;;;;;;;;;4893873;28;20043;-61
2021/03/18 07:43:45;;;;;;;7.88;3.30;;;;;;;;;;4925795;28;20123;-59
2021/03/18 07:46:19;;;;;;;16.67;3.38;;;;;;;;;;4924442;28;20027;-60
2021/03/18 07:49:05;;;;;;;5.57;2.40;;;;;;;;;;4930602;28;20042;-60
2021/03/18 07:51:39;;;;;;;10.85;3.05;;;;;;;;;;4920352;28;20050;-59
2021/03/18 07:54:05;;;;;;;11.15;3.17;;;;;;;;;;4891808;28;20038;-59
2021/03/18 07:56:31;;;;;;;10.38;2.78;;;;;;;;;;4927937;28;20027;-64
2021/03/18 07:59:08;;;;;;;13.50;3.50;;;;;;;;;;4905794;28;22202;-60
2021/03/18 08:01:39;;;;;;;9.98;3.40;;;;;;;;;;4908591;28;20119;-59
2021/03/18 08:04:06;;;;;;;8.43;2.80;;;;;;;;;;4911832;28;20792;-60
2021/03/18 08:06:41;;;;;;;9.07;2.97;;;;;;;;;;4907975;28;20031;-59
2021/03/18 08:09:15;;;;;;;13.13;3.17;;;;;;;;;;4930723;28;20019;-59
2021/03/18 08:11:46;;;;;;;10.68;3.30;;;;;;;;;;4894271;28;20042;-60
2021/03/18 08:14:24;;;;;;;6.70;2.47;;;;;;;;;;4910851;28;20565;-59
2021/03/18 08:16:50;;;;;;;12.50;3.25;;;;;;;;;;4892456;28;20550;-61
2021/03/18 08:19:19;;;;;;;8.40;2.67;;;;;;;;;;4925606;28;20130;-61
2021/03/18 08:21:49;;;;;;;12.43;2.88;;;;;;;;;;4905423;28;20054;-61
2021/03/18 08:24:26;;;;;;;11.00;3.10;;;;;;;;;;4909636;28;20031;-59
2021/03/18 08:26:57;;;;;;;10.60;2.42;;;;;;;;;;4928809;28;20114;-60
2021/03/18 08:29:23;;;;;;;6.07;2.17;;;;;;;;;;4913253;28;20046;-60
2021/03/18 08:31:50;;;;;;;13.98;3.70;;;;;;;;;;4931645;28;20525;-60
2021/03/18 08:34:16;;;;;;;5.15;2.65;;;;;;;;;;4930201;28;20062;-62
2021/03/18 08:36:53;;;;;;;8.88;2.92;;;;;;;;;;4932470;28;20147;-61
2021/03/18 08:39:48;;;;;;;6.82;2.50;;;;;;;;;;4932042;28;20037;-60
2021/03/18 08:42:35;;;;;;;8.75;2.65;;;;;;;;;;4910658;28;20043;-59
2021/03/18 08:45:03;;;;;;;9.98;2.65;;;;;;;;;;4934394;28;20031;-60
2021/03/18 08:47:39;;;;;;;12.68;3.15;;;;;;;;;;4912514;28;20038;-60
2021/03/18 08:50:06;;;;;;;6.80;2.33;;;;;;;;;;4933532;28;20035;-61
2021/03/18 08:52:39;;;;;;;7.05;2.40;;;;;;;;;;4927049;28;20119;-61
2021/03/18 08:55:06;;;;;;;13.75;2.58;;;;;;;;;;4933772;28;20038;-61
2021/03/18 08:57:39;;;;;;;8.48;2.85;;;;;;;;;;4930712;28;20035;-60
2021/03/18 09:00:05;;;;;;;12.00;2.88;;;;;;;;;;4928105;28;20568;-61
2021/03/18 09:02:38;;;;;;;8.43;2.47;;;;;;;;;;4914281;28;20035;-61
2021/03/18 09:05:16;;;;;;;11.27;2.90;;;;;;;;;;4912505;28;20086;-62
2021/03/18 09:07:43;;;;;;;25.05;3.67;;;;;;;;;;4933908;28;20046;-63
2021/03/18 09:10:10;;;;;;;15.88;2.47;;;;;;;;;;4917790;28;20041;-62
2021/03/18 09:12:36;;;;;;;13.40;2.15;;;;;;;;;;4916445;28;20027;-62
2021/03/18 09:15:10;;;;;;;10.77;2.33;;;;;;;;;;4929955;28;20061;-66
2021/03/18 09:17:38;;;;;;;13.63;3.00;;;;;;;;;;4914674;28;20035;-63
2021/03/18 09:20:04;;;;;;;11.13;2.30;;;;;;;;;;4932487;28;20142;-63
2021/03/18 09:22:30;;;;;;;12.00;3.35;;;;;;;;;;4932687;28;20797;-63
2021/03/18 09:24:57;;;;;;;18.27;3.22;;;;;;;;;;4912012;28;20043;-65
2021/03/18 09:27:33;;;;;;;18.58;2.67;;;;;;;;;;4930508;28;20046;-63
2021/03/18 09:30:12;;;;;;;7.97;1.70;;;;;;;;;;4935049;28;20063;-65
2021/03/18 09:32:42;;;;;;;10.10;2.05;;;;;;;;;;4931933;28;20034;-64
2021/03/18 09:35:11;;;;;;;12.80;2.25;;;;;;;;;;4932301;28;20047;-64
2021/03/18 09:37:44;;;;;;;14.02;1.80;;;;;;;;;;4916321;29;20166;-65
2021/03/18 09:40:11;;;;;;;10.52;2.08;;;;;;;;;;4913335;28;20042;-65
2021/03/18 09:42:37;;;;;;;14.93;2.03;;;;;;;;;;4932311;28;20046;-66
2021/03/18 09:45:06;;;;;;;8.13;1.65;;;;;;;;;;4931004;28;20994;-65
2021/03/18 09:47:34;;;;;;;10.63;1.70;;;;;;;;;;4909221;28;20036;-66
2021/03/18 09:50:01;;;;;;;10.50;1.17;;;;;;;;;;4910705;28;20529;-66
2021/03/18 09:52:31;;;;;;;11.55;1.60;;;;;;;;;;4905719;28;20049;-65
2021/03/18 09:54:58;;;;;;;10.23;1.15;;;;;;;;;;4931031;28;20450;-67
2021/03/18 09:57:30;;;;;;;7.88;1.05;;;;;;;;;;4927674;28;20036;-66
2021/03/18 10:00:01;;;;;;;9.23;2.00;;;;;;;;;;4911373;28;20035;-67
2021/03/18 10:02:28;;;;;;;9.32;1.63;;;;;;;;;;4897395;28;20027;-66
2021/03/18 10:04:54;;;;;;;9.52;1.65;;;;;;;;;;4930605;28;21986;-66
2021/03/18 10:07:29;;;;;;;8.73;1.25;;;;;;;;;;4934142;28;20133;-66
2021/03/18 10:09:54;;;;;;;7.63;1.90;;;;;;;;;;4913571;28;20047;-67
2021/03/18 10:12:22;;;;;;;3.75;1.15;;;;;;;;;;4930469;28;20046;-67
2021/03/18 10:14:58;;;;;;;10.98;1.20;;;;;;;;;;4934405;28;20689;-64
2021/03/18 10:17:33;;;;;;;10.02;1.40;;;;;;;;;;4908250;28;20027;-66
2021/03/18 10:20:07;;;;;;;3.72;1.10;;;;;;;;;;4929071;28;20476;-66
2021/03/18 10:22:38;;;;;;;7.10;1.27;;;;;;;;;;4929446;28;20046;-65
2021/03/18 10:25:12;;;;;;;6.60;0.93;;;;;;;;;;4928357;28;20066;-67
2021/03/18 10:28:12;;;;;;;12.93;1.70;;;;;;;;;;4930505;28;20591;-67
2021/03/18 10:30:42;;;;;;;10.88;1.55;;;;;;;;;;4864212;28;20071;-64
2021/03/18 10:33:15;;;;;;;12.73;2.25;;;;;;;;;;4932312;28;20105;-66
2021/03/18 10:35:47;;;;;;;5.65;1.08;;;;;;;;;;4929946;28;20146;-67
2021/03/18 10:38:25;;;;;;;13.48;1.67;;;;;;;;;;4933235;28;20043;-66
2021/03/18 10:40:51;;;;;;;8.88;1.38;;;;;;;;;;4898836;28;20035;-67
2021/03/18 10:43:24;;;;;;;6.57;1.20;;;;;;;;;;4912265;28;20042;-68
2021/03/18 10:45:53;;;;;;;9.25;1.23;;;;;;;;;;4931214;28;20042;-68
2021/03/18 10:48:20;;;;;;;10.32;1.77;;;;;;;;;;4931812;28;20142;-68
2021/03/18 10:50:49;;;;;;;10.75;1.10;;;;;;;;;;4928470;28;20510;-67
2021/03/18 10:53:19;;;;;;;12.75;1.83;;;;;;;;;;4927706;28;20095;-68
2021/03/18 10:55:50;;;;;;;12.00;2.15;;;;;;;;;;4929459;28;20043;-67
2021/03/18 10:58:25;;;;;;;13.20;2.08;;;;;;;;;;4931296;28;20046;-67
2021/03/18 11:00:57;;;;;;;9.35;1.55;;;;;;;;;;4928814;28;20643;-66
2021/03/18 11:03:32;;;;;;;13.95;1.83;;;;;;;;;;4927225;28;20076;-67
2021/03/18 11:06:00;;;;;;;10.00;1.38;;;;;;;;;;4928515;28;20035;-68
2021/03/18 11:08:34;;;;;;;17.48;2.40;;;;;;;;;;4911630;28;20725;-66
2021/03/18 11:11:12;;;;;;;13.38;1.50;;;;;;;;;;4929214;28;20110;-66
2021/03/18 11:13:41;;;;;;;6.93;1.50;;;;;;;;;;4930459;28;20039;-65
2021/03/18 11:16:06;;;;;;;12.15;1.80;;;;;;;;;;4929673;28;20054;-66
2021/03/18 11:18:36;;;;;;;12.65;2.38;;;;;;;;;;4910141;28;20062;-66
2021/03/18 11:21:05;;;;;;;15.48;1.83;;;;;;;;;;4910442;28;20435;-68
2021/03/18 11:23:38;;;;;;;8.05;1.88;;;;;;;;;;4929332;28;20055;-66
2021/03/18 11:26:06;;;;;;;;;;;;;;;;;;4909492;28;20045;-67
2021/03/18 11:28:33;;;;;;;16.05;1.63;;;;;;;;;;4909416;28;19914;-65
2021/03/18 11:31:02;;;;;;;16.42;1.98;;;;;;;;;;4925813;28;20035;-68
2021/03/18 11:33:33;;;;;;;18.52;1.77;;;;;;;;;;4909772;28;20035;-67
2021/03/18 11:36:00;;;;;;;10.98;1.75;;;;;;;;;;4910494;28;20411;-65
2021/03/18 11:38:28;;;;;;;13.30;1.98;;;;;;;;;;4897080;28;22308;-65
2021/03/18 11:40:54;;;;;;;9.23;1.60;;;;;;;;;;4929796;28;20799;-65
2021/03/18 11:43:20;;;;;;;9.18;2.10;;;;;;;;;;4932633;28;20125;-65
2021/03/18 11:45:45;;;;;;;14.13;1.85;;;;;;;;;;4911121;28;20039;-67
2021/03/18 11:48:11;;;;;;;25.92;1.95;;;;;;;;;;4929568;28;20037;-67
2021/03/18 11:50:39;;;;;;;12.05;2.15;;;;;;;;;;4928176;28;20034;-65
2021/03/18 11:53:08;;;;;;;11.23;1.90;;;;;;;;;;4930924;28;20062;-69
2021/03/18 11:55:36;;;;;;;12.68;2.17;;;;;;;;;;4914201;28;20039;-65
2021/03/18 11:58:04;;;;;;;18.95;2.85;;;;;;;;;;4891596;28;20670;-66
2021/03/18 12:00:33;;;;;;;14.68;1.92;;;;;;;;;;4923959;28;21525;-66
2021/03/18 12:02:59;;;;;;;10.70;1.35;;;;;;;;;;4928955;28;20690;-66
2021/03/18 12:05:28;;;;;;;12.50;2.03;;;;;;;;;;4912260;28;20041;-66
2021/03/18 12:07:56;;;;;;;15.75;2.47;;;;;;;;;;4894115;28;20042;-66
2021/03/18 12:10:26;;;;;;;8.93;1.33;;;;;;;;;;4930058;28;20065;-66
2021/03/18 12:12:54;;;;;;;11.35;1.83;;;;;;;;;;4925564;28;20070;-65
2021/03/18 12:15:20;;;;;;;14.13;1.73;;;;;;;;;;4911223;28;20059;-65
2021/03/18 12:17:48;;;;;;;5.28;1.50;;;;;;;;;;4913745;28;20027;-66
2021/03/18 12:20:16;;;;;;;13.07;1.90;;;;;;;;;;4929502;28;20035;-69
2021/03/18 12:22:45;;;;;;;14.25;2.05;;;;;;;;;;4927845;28;20066;-66
2021/03/18 12:25:14;;;;;;;15.55;2.70;;;;;;;;;;4932121;28;20042;-66
2021/03/18 12:27:42;;;;;;;10.10;1.75;;;;;;;;;;4910539;28;20087;-65
2021/03/18 12:30:08;;;;;;;6.07;1.40;;;;;;;;;;4909812;28;20035;-64
2021/03/18 12:32:34;;;;;;;12.60;1.40;;;;;;;;;;4928777;28;20031;-67
2021/03/18 12:34:59;;;;;;;9.07;1.83;;;;;;;;;;4927979;28;20625;-66
2021/03/18 12:37:25;;;;;;;10.27;1.73;;;;;;;;;;4911452;28;20059;-66
2021/03/18 12:39:50;;;;;;;11.02;1.77;;;;;;;;;;4929377;28;20039;-67
2021/03/18 12:42:19;;;;;;;11.38;1.38;;;;;;;;;;4912751;28;20027;-65
2021/03/18 12:44:47;;;;;;;12.23;1.70;;;;;;;;;;4913366;28;20150;-65
2021/03/18 12:47:16;;;;;;;16.48;2.13;;;;;;;;;;4930272;28;20031;-66
2021/03/18 12:49:42;;;;;;;11.15;2.28;;;;;;;;;;4929274;28;20039;-64
2021/03/18 12:52:07;;;;;;;8.02;1.20;;;;;;;;;;4924419;28;20038;-65
2021/03/18 12:54:35;;;;;;;13.57;1.65;;;;;;;;;;4903787;28;20047;-65
2021/03/18 12:57:02;;;;;;;11.15;2.13;;;;;;;;;;4910094;28;20656;-66
2021/03/18 12:59:32;;;;;;;11.77;2.00;;;;;;;;;;4925016;28;20166;-65
2021/03/18 13:01:57;;;;;;;11.00;1.77;;;;;;;;;;4908650;28;20090;-66
2021/03/18 13:04:27;;;;;;;14.52;2.17;;;;;;;;;;4927642;28;20507;-68
2021/03/18 13:06:53;;;;;;;11.48;1.58;;;;;;;;;;4924454;28;20038;-66
2021/03/18 13:09:23;;;;;;;12.38;1.75;;;;;;;;;;4911050;28;20039;-65
2021/03/18 13:11:52;;;;;;;14.57;1.63;;;;;;;;;;4929148;28;20098;-67
2021/03/18 13:14:20;;;;;;;8.90;1.80;;;;;;;;;;4927173;28;21087;-66
2021/03/18 13:16:46;;;;;;;8.35;1.45;;;;;;;;;;4929987;28;20043;-66
2021/03/18 13:19:14;;;;;;;16.48;1.85;;;;;;;;;;4912913;28;20087;-66
2021/03/18 13:21:42;;;;;;;10.50;1.60;;;;;;;;;;4894350;28;20919;-65
2021/03/18 13:24:08;;;;;;;16.50;1.95;;;;;;;;;;4898016;28;20046;-66
2021/03/18 13:26:34;;;;;;;9.27;2.25;;;;;;;;;;4930758;28;20039;-66
2021/03/18 13:29:07;;;;;;;11.90;1.73;;;;;;;;;;4912881;28;20042;-67
2021/03/18 13:31:36;;;;;;;11.32;1.58;;;;;;;;;;4926675;28;20562;-65
2021/03/18 13:34:03;;;;;;;15.38;2.15;;;;;;;;;;4926783;28;20042;-65
2021/03/18 13:36:32;;;;;;;15.63;2.20;;;;;;;;;;4901418;29;20052;-65
2021/03/18 13:38:57;;;;;;;9.50;1.40;;;;;;;;;;4909302;29;20090;-66
2021/03/18 13:41:28;;;;;;;8.85;1.30;;;;;;;;;;4907740;29;21997;-66
2021/03/18 13:43:56;;;;;;;11.45;1.90;;;;;;;;;;4890893;29;20984;-67
2021/03/18 13:46:25;;;;;;;11.23;1.60;;;;;;;;;;4891815;29;20130;-66
2021/03/18 13:48:52;;;;;;;10.65;1.90;;;;;;;;;;4912100;29;20035;-65
2021/03/18 13:51:21;;;;;;;5.82;1.25;;;;;;;;;;4912124;29;20040;-66
2021/03/18 13:53:47;;;;;;;8.38;1.75;;;;;;;;;;4892007;29;20026;-67
2021/03/18 13:56:14;;;;;;;10.75;1.02;;;;;;;;;;4892162;29;20163;-65
2021/03/18 13:58:40;;;;;;;10.77;1.40;;;;;;;;;;4896726;29;20086;-65
2021/03/18 14:01:06;;;;;;;7.97;1.30;;;;;;;;;;4896550;29;20043;-65
2021/03/18 14:03:32;;;;;;;13.38;2.08;;;;;;;;;;4912048;29;20396;-65
2021/03/18 14:05:58;;;;;;;12.48;1.38;;;;;;;;;;4912152;29;20562;-66
2021/03/18 14:08:24;;;;;;;8.85;1.27;;;;;;;;;;4913082;29;20055;-65
2021/03/18 14:10:51;;;;;;;11.57;1.33;;;;;;;;;;4913143;29;21095;-63
2021/03/18 14:13:17;;;;;;;11.73;1.15;;;;;;;;;;4912705;29;20051;-63
2021/03/18 14:15:46;;;;;;;7.30;1.17;;;;;;;;;;4908664;29;20086;-66
2021/03/18 14:18:14;;;;;;;4.05;0.93;;;;;;;;;;4892141;29;20047;-64
2021/03/18 14:20:40;;;;;;;6.15;1.02;;;;;;;;;;4913102;29;20043;-64
2021/03/18 14:23:06;;;;;;;4.55;0.95;;;;;;;;;;4908107;29;20036;-63
2021/03/18 14:25:40;;;;;;;8.88;1.15;;;;;;;;;;4893643;29;20078;-64
2021/03/18 14:28:08;;;;;;;3.90;1.48;;;;;;;;;;4893978;29;20059;-66
2021/03/18 14:30:37;;;;;;;4.80;0.98;;;;;;;;;;4894969;29;20024;-64
2021/03/18 14:33:05;;;;;;;5.28;0.82;;;;;;;;;;4906242;29;20031;-64
2021/03/18 14:35:32;;;;;;;10.70;1.05;;;;;;;;;;4917283;29;20027;-63
2021/03/18 14:38:00;;;;;;;10.05;1.15;;;;;;;;;;4924572;28;20050;-63
2021/03/18 14:40:29;;;;;;;4.20;0.93;;;;;;;;;;4927199;28;20035;-64
2021/03/18 14:42:56;;;;;;;6.50;1.10;;;;;;;;;;4912094;29;20130;-65
2021/03/18 14:45:22;;;;;;;7.28;0.63;;;;;;;;;;4930433;28;20043;-65
2021/03/18 14:47:48;;;;;;;7.15;1.13;;;;;;;;;;4930148;28;20043;-63
2021/03/18 14:50:14;;;;;;;10.23;1.08;;;;;;;;;;4931607;28;20726;-63